Temple, Georgia
Current Conditions -  °F | °C
As of 2:35 PM on Thursday 30 Oct 2014 (Local Time) from KCTJ Reporting Station
Clear Clear  
Wind Chill: 64°   Ceiling: Unl
Heat Index: 64°   Visibility: 10mi
Dew Point: 34°   Wind: 7mph
Humidity: 32%   Direction: 300°WNW
Pressure: 30.03"   Gusts: NA
Location:  33.74°N, 85.03°W
Report Text: KCTJ 301835Z AUTO 30006KT 10SM CLR 18/01 A3003 RMK AO2
Loading
Personal Weather Stations






























Interactive Weather Map
Tropical Storm Tracking
New forecast layout! Learn more

10-Day Weather Forecast

Advertisements
Track Severe Weather on mobile